sensor_id;sensor_type;location;lat;lon;timestamp;pressure;altitude;pressure_sealevel;temperature;humidity
36798;BME280;22748;8.426;99.512;2023-04-15T00:00:13;100584.81;;;31.46;61.94
36798;BME280;22748;8.426;99.512;2023-04-15T00:02:49;100591.88;;;31.47;61.87
36798;BME280;22748;8.426;99.512;2023-04-15T00:05:20;100597.09;;;31.42;62.03
36798;BME280;22748;8.426;99.512;2023-04-15T00:07:50;100598.16;;;31.41;62.00
36798;BME280;22748;8.426;99.512;2023-04-15T00:10:28;100604.38;;;31.41;62.37
36798;BME280;22748;8.426;99.512;2023-04-15T00:12:58;100609.78;;;31.41;62.46
36798;BME280;22748;8.426;99.512;2023-04-15T00:15:37;100607.06;;;31.41;62.67
36798;BME280;22748;8.426;99.512;2023-04-15T00:18:08;100619.75;;;31.41;62.49
36798;BME280;22748;8.426;99.512;2023-04-15T00:20:39;100613.50;;;31.40;62.65
36798;BME280;22748;8.426;99.512;2023-04-15T00:23:09;100623.47;;;31.40;62.77
36798;BME280;22748;8.426;99.512;2023-04-15T00:25:42;100618.91;;;31.40;62.79
36798;BME280;22748;8.426;99.512;2023-04-15T00:28:14;100627.41;;;31.44;62.78
36798;BME280;22748;8.426;99.512;2023-04-15T00:30:44;100636.56;;;31.43;63.02
36798;BME280;22748;8.426;99.512;2023-04-15T00:33:16;100634.28;;;31.40;62.81
36798;BME280;22748;8.426;99.512;2023-04-15T00:35:46;100644.66;;;31.43;63.36
36798;BME280;22748;8.426;99.512;2023-04-15T00:38:22;100647.50;;;31.48;63.27
36798;BME280;22748;8.426;99.512;2023-04-15T00:40:54;100656.19;;;31.50;62.48
36798;BME280;22748;8.426;99.512;2023-04-15T00:43:25;100652.91;;;31.48;63.36
36798;BME280;22748;8.426;99.512;2023-04-15T00:46:04;100651.69;;;31.44;63.51
36798;BME280;22748;8.426;99.512;2023-04-15T00:48:41;100650.06;;;31.43;63.34
36798;BME280;22748;8.426;99.512;2023-04-15T00:51:17;100648.56;;;31.47;63.92
36798;BME280;22748;8.426;99.512;2023-04-15T00:53:47;100652.09;;;31.47;64.00
36798;BME280;22748;8.426;99.512;2023-04-15T00:56:19;100646.31;;;31.44;63.68
36798;BME280;22748;8.426;99.512;2023-04-15T00:58:57;100659.72;;;31.50;64.14
36798;BME280;22748;8.426;99.512;2023-04-15T01:01:41;100657.19;;;31.55;63.79
36798;BME280;22748;8.426;99.512;2023-04-15T01:04:18;100652.72;;;31.61;63.78
36798;BME280;22748;8.426;99.512;2023-04-15T01:06:48;100659.78;;;31.62;63.61
36798;BME280;22748;8.426;99.512;2023-04-15T01:09:32;100664.72;;;31.65;63.83
36798;BME280;22748;8.426;99.512;2023-04-15T01:12:05;100666.16;;;31.68;63.66
36798;BME280;22748;8.426;99.512;2023-04-15T01:14:37;100665.47;;;31.72;63.76
36798;BME280;22748;8.426;99.512;2023-04-15T01:17:08;100666.53;;;31.71;64.00
36798;BME280;22748;8.426;99.512;2023-04-15T01:19:42;100663.09;;;31.64;64.07
36798;BME280;22748;8.426;99.512;2023-04-15T01:22:26;100676.28;;;31.54;64.45
36798;BME280;22748;8.426;99.512;2023-04-15T01:25:10;100674.78;;;31.58;64.79
36798;BME280;22748;8.426;99.512;2023-04-15T01:27:48;100680.63;;;31.55;64.91
36798;BME280;22748;8.426;99.512;2023-04-15T01:30:27;100684.69;;;31.64;64.03
36798;BME280;22748;8.426;99.512;2023-04-15T01:33:03;100689.63;;;31.67;64.17
36798;BME280;22748;8.426;99.512;2023-04-15T01:35:34;100690.34;;;31.74;63.69
36798;BME280;22748;8.426;99.512;2023-04-15T01:38:06;100692.97;;;31.81;63.82
36798;BME280;22748;8.426;99.512;2023-04-15T01:40:43;100695.25;;;31.84;63.66
36798;BME280;22748;8.426;99.512;2023-04-15T01:43:16;100691.25;;;31.87;63.64
36798;BME280;22748;8.426;99.512;2023-04-15T01:45:49;100705.56;;;31.87;63.75
36798;BME280;22748;8.426;99.512;2023-04-15T01:48:28;100707.59;;;31.92;63.47
36798;BME280;22748;8.426;99.512;2023-04-15T01:50:59;100698.59;;;31.98;63.17
36798;BME280;22748;8.426;99.512;2023-04-15T01:53:30;100699.22;;;32.00;62.83
36798;BME280;22748;8.426;99.512;2023-04-15T01:55:59;100697.56;;;31.99;62.61
36798;BME280;22748;8.426;99.512;2023-04-15T01:58:32;100706.28;;;32.01;62.44
36798;BME280;22748;8.426;99.512;2023-04-15T02:01:03;100707.31;;;32.00;63.33
36798;BME280;22748;8.426;99.512;2023-04-15T02:03:33;100715.41;;;32.00;62.81
36798;BME280;22748;8.426;99.512;2023-04-15T02:06:04;100709.47;;;32.10;63.06
36798;BME280;22748;8.426;99.512;2023-04-15T02:08:37;100713.78;;;31.99;63.22
36798;BME280;22748;8.426;99.512;2023-04-15T02:11:08;100719.31;;;32.04;63.02
36798;BME280;22748;8.426;99.512;2023-04-15T02:13:53;100720.34;;;32.03;63.17
36798;BME280;22748;8.426;99.512;2023-04-15T02:16:23;100723.66;;;32.05;62.91
36798;BME280;22748;8.426;99.512;2023-04-15T02:19:03;100720.06;;;31.93;63.46
36798;BME280;22748;8.426;99.512;2023-04-15T02:21:34;100729.13;;;31.98;62.83
36798;BME280;22748;8.426;99.512;2023-04-15T02:24:07;100731.03;;;31.98;63.12
36798;BME280;22748;8.426;99.512;2023-04-15T02:26:39;100733.28;;;32.01;62.93
36798;BME280;22748;8.426;99.512;2023-04-15T02:29:25;100735.22;;;32.12;63.06
36798;BME280;22748;8.426;99.512;2023-04-15T02:31:55;100737.56;;;32.21;62.78
36798;BME280;22748;8.426;99.512;2023-04-15T02:34:26;100738.75;;;32.25;62.53
36798;BME280;22748;8.426;99.512;2023-04-15T02:36:58;100736.91;;;32.25;62.09
36798;BME280;22748;8.426;99.512;2023-04-15T02:39:28;100742.06;;;32.27;62.07
36798;BME280;22748;8.426;99.512;2023-04-15T02:42:00;100729.16;;;32.29;62.04
36798;BME280;22748;8.426;99.512;2023-04-15T02:44:37;100734.56;;;32.29;61.99
36798;BME280;22748;8.426;99.512;2023-04-15T02:47:33;100737.84;;;32.31;62.17
36798;BME280;22748;8.426;99.512;2023-04-15T02:50:11;100729.53;;;32.32;62.10
36798;BME280;22748;8.426;99.512;2023-04-15T02:52:47;100738.91;;;32.30;62.06
36798;BME280;22748;8.426;99.512;2023-04-15T02:55:18;100727.50;;;32.28;61.88
36798;BME280;22748;8.426;99.512;2023-04-15T02:57:48;100731.63;;;32.30;61.88
36798;BME280;22748;8.426;99.512;2023-04-15T03:00:21;100737.03;;;32.30;62.21
36798;BME280;22748;8.426;99.512;2023-04-15T03:02:59;100737.66;;;32.44;62.11
36798;BME280;22748;8.426;99.512;2023-04-15T03:05:34;100727.59;;;32.51;61.56
36798;BME280;22748;8.426;99.512;2023-04-15T03:08:08;100726.75;;;32.51;61.27
36798;BME280;22748;8.426;99.512;2023-04-15T03:10:39;100724.22;;;32.56;61.29
36798;BME280;22748;8.426;99.512;2023-04-15T03:13:22;100723.28;;;32.62;61.36
36798;BME280;22748;8.426;99.512;2023-04-15T03:15:55;100715.28;;;32.67;61.22
36798;BME280;22748;8.426;99.512;2023-04-15T03:18:27;100717.78;;;32.69;60.67
36798;BME280;22748;8.426;99.512;2023-04-15T03:21:04;100724.09;;;32.63;59.97
36798;BME280;22748;8.426;99.512;2023-04-15T03:23:35;100723.28;;;32.62;60.09
36798;BME280;22748;8.426;99.512;2023-04-15T03:26:07;100728.22;;;32.65;60.03
36798;BME280;22748;8.426;99.512;2023-04-15T03:28:37;100723.78;;;32.71;59.93
36798;BME280;22748;8.426;99.512;2023-04-15T03:31:12;100718.47;;;32.76;59.67
36798;BME280;22748;8.426;99.512;2023-04-15T03:33:42;100719.19;;;32.83;59.56
36798;BME280;22748;8.426;99.512;2023-04-15T03:36:12;100710.13;;;32.89;59.65
36798;BME280;22748;8.426;99.512;2023-04-15T03:38:46;100710.72;;;32.91;59.71
36798;BME280;22748;8.426;99.512;2023-04-15T03:41:17;100707.31;;;32.96;59.63
36798;BME280;22748;8.426;99.512;2023-04-15T03:43:47;100706.50;;;32.95;59.56
36798;BME280;22748;8.426;99.512;2023-04-15T03:46:21;100698.72;;;32.99;59.36
36798;BME280;22748;8.426;99.512;2023-04-15T03:48:57;100694.75;;;33.02;59.30
36798;BME280;22748;8.426;99.512;2023-04-15T03:51:33;100681.81;;;33.04;59.50
36798;BME280;22748;8.426;99.512;2023-04-15T03:54:05;100690.06;;;33.09;59.64
36798;BME280;22748;8.426;99.512;2023-04-15T03:56:36;100680.41;;;33.13;59.38
36798;BME280;22748;8.426;99.512;2023-04-15T03:59:13;100675.31;;;33.16;59.03
36798;BME280;22748;8.426;99.512;2023-04-15T04:01:55;100671.81;;;33.16;58.82
36798;BME280;22748;8.426;99.512;2023-04-15T04:04:26;100671.72;;;33.11;58.69
36798;BME280;22748;8.426;99.512;2023-04-15T04:07:12;100665.81;;;33.14;58.99
36798;BME280;22748;8.426;99.512;2023-04-15T04:09:44;100665.34;;;33.17;57.89
36798;BME280;22748;8.426;99.512;2023-04-15T04:12:14;100658.50;;;33.03;57.89
36798;BME280;22748;8.426;99.512;2023-04-15T04:14:44;100660.88;;;33.11;57.99
36798;BME280;22748;8.426;99.512;2023-04-15T04:17:18;100648.25;;;33.16;57.77
36798;BME280;22748;8.426;99.512;2023-04-15T04:19:54;100651.91;;;33.22;57.62
36798;BME280;22748;8.426;99.512;2023-04-15T04:22:30;100638.28;;;33.17;57.73
36798;BME280;22748;8.426;99.512;2023-04-15T04:25:00;100637.44;;;33.16;57.21
36798;BME280;22748;8.426;99.512;2023-04-15T04:27:31;100632.38;;;33.20;56.93
36798;BME280;22748;8.426;99.512;2023-04-15T04:30:01;100633.47;;;33.19;57.54
36798;BME280;22748;8.426;99.512;2023-04-15T04:32:33;100637.81;;;33.20;56.96
36798;BME280;22748;8.426;99.512;2023-04-15T04:35:04;100633.19;;;33.20;57.15
36798;BME280;22748;8.426;99.512;2023-04-15T04:37:39;100629.69;;;33.20;57.29
36798;BME280;22748;8.426;99.512;2023-04-15T04:40:17;100627.69;;;33.15;57.74
36798;BME280;22748;8.426;99.512;2023-04-15T04:42:58;100624.63;;;33.12;57.32
36798;BME280;22748;8.426;99.512;2023-04-15T04:45:28;100613.81;;;33.12;57.45
36798;BME280;22748;8.426;99.512;2023-04-15T04:48:06;100615.34;;;33.08;57.54
36798;BME280;22748;8.426;99.512;2023-04-15T04:50:37;100613.72;;;33.07;57.59
36798;BME280;22748;8.426;99.512;2023-04-15T04:53:10;100613.81;;;33.12;57.72
36798;BME280;22748;8.426;99.512;2023-04-15T04:55:44;100607.94;;;33.15;57.68
36798;BME280;22748;8.426;99.512;2023-04-15T04:58:15;100595.31;;;33.20;57.63
36798;BME280;22748;8.426;99.512;2023-04-15T05:00:46;100594.03;;;33.23;57.93
36798;BME280;22748;8.426;99.512;2023-04-15T05:03:20;100588.72;;;33.28;57.43
36798;BME280;22748;8.426;99.512;2023-04-15T05:05:51;100585.28;;;33.33;56.52
36798;BME280;22748;8.426;99.512;2023-04-15T05:08:21;100577.97;;;33.33;56.95
36798;BME280;22748;8.426;99.512;2023-04-15T05:10:54;100571.03;;;33.37;56.93
36798;BME280;22748;8.426;99.512;2023-04-15T05:13:25;100568.31;;;33.37;56.98
36798;BME280;22748;8.426;99.512;2023-04-15T05:15:58;100567.38;;;33.44;56.80
36798;BME280;22748;8.426;99.512;2023-04-15T05:18:41;100563.25;;;33.41;56.79
36798;BME280;22748;8.426;99.512;2023-04-15T05:21:12;100568.19;;;33.44;56.30
36798;BME280;22748;8.426;99.512;2023-04-15T05:23:53;100555.81;;;33.48;55.68
36798;BME280;22748;8.426;99.512;2023-04-15T05:26:26;100546.47;;;33.56;55.04
36798;BME280;22748;8.426;99.512;2023-04-15T05:28:57;100537.97;;;33.64;54.57
36798;BME280;22748;8.426;99.512;2023-04-15T05:31:27;100538.09;;;33.69;54.53
36798;BME280;22748;8.426;99.512;2023-04-15T05:34:17;100532.16;;;33.72;55.04
36798;BME280;22748;8.426;99.512;2023-04-15T05:36:49;100520.84;;;33.75;54.90
36798;BME280;22748;8.426;99.512;2023-04-15T05:39:26;100521.41;;;33.77;55.15
36798;BME280;22748;8.426;99.512;2023-04-15T05:41:58;100511.72;;;33.81;54.68
36798;BME280;22748;8.426;99.512;2023-04-15T05:44:29;100507.97;;;33.83;54.53
36798;BME280;22748;8.426;99.512;2023-04-15T05:46:59;100501.00;;;33.87;54.58
36798;BME280;22748;8.426;99.512;2023-04-15T05:49:32;100493.69;;;33.87;54.35
36798;BME280;22748;8.426;99.512;2023-04-15T05:52:03;100476.63;;;33.87;54.63
36798;BME280;22748;8.426;99.512;2023-04-15T05:54:34;100474.88;;;33.80;53.69
36798;BME280;22748;8.426;99.512;2023-04-15T05:57:05;100469.06;;;33.89;53.56
36798;BME280;22748;8.426;99.512;2023-04-15T05:59:36;100457.06;;;33.85;53.12
36798;BME280;22748;8.426;99.512;2023-04-15T06:02:10;100457.16;;;33.90;53.16
36798;BME280;22748;8.426;99.512;2023-04-15T06:04:43;100449.19;;;34.00;53.65
36798;BME280;22748;8.426;99.512;2023-04-15T06:07:14;100436.44;;;34.00;53.68
36798;BME280;22748;8.426;99.512;2023-04-15T06:09:44;100434.31;;;34.03;53.68
36798;BME280;22748;8.426;99.512;2023-04-15T06:12:15;100431.59;;;34.03;53.13
36798;BME280;22748;8.426;99.512;2023-04-15T06:14:45;100425.44;;;34.07;52.98
36798;BME280;22748;8.426;99.512;2023-04-15T06:17:16;100423.94;;;34.16;52.94
36798;BME280;22748;8.426;99.512;2023-04-15T06:19:49;100415.41;;;34.25;52.98
36798;BME280;22748;8.426;99.512;2023-04-15T06:22:22;100413.88;;;34.34;52.62
36798;BME280;22748;8.426;99.512;2023-04-15T06:24:54;100397.13;;;34.37;52.43
36798;BME280;22748;8.426;99.512;2023-04-15T06:27:26;100402.56;;;34.37;52.48
36798;BME280;22748;8.426;99.512;2023-04-15T06:30:09;100396.63;;;34.40;52.17
36798;BME280;22748;8.426;99.512;2023-04-15T06:32:39;100395.59;;;34.46;51.47
36798;BME280;22748;8.426;99.512;2023-04-15T06:35:12;100380.81;;;34.54;51.44
36798;BME280;22748;8.426;99.512;2023-04-15T06:37:43;100376.00;;;34.61;51.49
36798;BME280;22748;8.426;99.512;2023-04-15T06:40:13;100376.88;;;34.67;50.94
36798;BME280;22748;8.426;99.512;2023-04-15T06:42:44;100370.19;;;34.74;50.38
36798;BME280;22748;8.426;99.512;2023-04-15T06:45:14;100362.09;;;34.79;50.62
36798;BME280;22748;8.426;99.512;2023-04-15T06:47:46;100363.75;;;34.80;50.48
36798;BME280;22748;8.426;99.512;2023-04-15T06:50:18;100358.00;;;34.77;50.77
36798;BME280;22748;8.426;99.512;2023-04-15T06:52:48;100359.59;;;34.73;50.64
36798;BME280;22748;8.426;99.512;2023-04-15T06:55:18;100358.78;;;34.72;50.77
36798;BME280;22748;8.426;99.512;2023-04-15T06:57:50;100340.09;;;34.76;50.56
36798;BME280;22748;8.426;99.512;2023-04-15T07:00:20;100339.34;;;34.80;50.61
36798;BME280;22748;8.426;99.512;2023-04-15T07:02:51;100332.00;;;34.81;51.15
36798;BME280;22748;8.426;99.512;2023-04-15T07:05:25;100332.81;;;34.81;50.98
36798;BME280;22748;8.426;99.512;2023-04-15T07:07:57;100327.41;;;34.81;51.44
36798;BME280;22748;8.426;99.512;2023-04-15T07:10:29;100319.56;;;34.85;50.38
36798;BME280;22748;8.426;99.512;2023-04-15T07:13:00;100316.66;;;34.92;49.47
36798;BME280;22748;8.426;99.512;2023-04-15T07:15:31;100318.34;;;34.98;49.31
36798;BME280;22748;8.426;99.512;2023-04-15T07:18:02;100305.88;;;35.02;48.75
36798;BME280;22748;8.426;99.512;2023-04-15T07:20:35;100299.69;;;35.07;48.76
36798;BME280;22748;8.426;99.512;2023-04-15T07:23:06;100300.81;;;35.11;48.81
36798;BME280;22748;8.426;99.512;2023-04-15T07:25:42;100291.00;;;35.10;49.64
36798;BME280;22748;8.426;99.512;2023-04-15T07:28:17;100288.19;;;34.99;49.24
36798;BME280;22748;8.426;99.512;2023-04-15T07:30:49;100288.72;;;34.96;49.62
36798;BME280;22748;8.426;99.512;2023-04-15T07:33:28;100283.91;;;35.03;49.38
36798;BME280;22748;8.426;99.512;2023-04-15T07:36:05;100283.44;;;35.12;48.72
36798;BME280;22748;8.426;99.512;2023-04-15T07:38:39;100271.88;;;35.21;48.84
36798;BME280;22748;8.426;99.512;2023-04-15T07:41:10;100268.94;;;35.28;48.49
36798;BME280;22748;8.426;99.512;2023-04-15T07:43:41;100271.91;;;35.32;48.52
36798;BME280;22748;8.426;99.512;2023-04-15T07:46:10;100269.19;;;35.32;49.10
36798;BME280;22748;8.426;99.512;2023-04-15T07:48:40;100261.91;;;35.32;48.23
36798;BME280;22748;8.426;99.512;2023-04-15T07:51:13;100256.47;;;35.32;48.29
36798;BME280;22748;8.426;99.512;2023-04-15T07:53:45;100263.53;;;35.33;48.22
36798;BME280;22748;8.426;99.512;2023-04-15T07:56:16;100252.66;;;35.33;48.02
36798;BME280;22748;8.426;99.512;2023-04-15T07:58:45;100248.31;;;35.32;48.41
36798;BME280;22748;8.426;99.512;2023-04-15T08:01:15;100251.56;;;35.34;48.19
36798;BME280;22748;8.426;99.512;2023-04-15T08:03:49;100251.03;;;35.32;48.42
36798;BME280;22748;8.426;99.512;2023-04-15T08:06:23;100243.41;;;35.29;47.68
36798;BME280;22748;8.426;99.512;2023-04-15T08:08:53;100238.53;;;35.31;47.78
36798;BME280;22748;8.426;99.512;2023-04-15T08:11:23;100234.22;;;35.35;47.78
36798;BME280;22748;8.426;99.512;2023-04-15T08:13:54;100229.91;;;35.39;47.36
36798;BME280;22748;8.426;99.512;2023-04-15T08:16:25;100223.34;;;35.35;47.26
36798;BME280;22748;8.426;99.512;2023-04-15T08:18:56;100220.66;;;35.40;46.95
36798;BME280;22748;8.426;99.512;2023-04-15T08:21:28;100222.88;;;35.49;46.88
36798;BME280;22748;8.426;99.512;2023-04-15T08:24:00;100211.47;;;35.52;46.79
36798;BME280;22748;8.426;99.512;2023-04-15T08:26:31;100207.69;;;35.53;47.04
36798;BME280;22748;8.426;99.512;2023-04-15T08:29:03;100200.09;;;35.55;47.01
36798;BME280;22748;8.426;99.512;2023-04-15T08:31:35;100201.47;;;35.57;46.81
36798;BME280;22748;8.426;99.512;2023-04-15T08:34:05;100202.81;;;35.60;47.03
36798;BME280;22748;8.426;99.512;2023-04-15T08:36:42;100199.31;;;35.59;46.87
36798;BME280;22748;8.426;99.512;2023-04-15T08:39:17;100193.66;;;35.66;46.58
36798;BME280;22748;8.426;99.512;2023-04-15T08:41:58;100201.81;;;35.71;46.74
36798;BME280;22748;8.426;99.512;2023-04-15T08:44:32;100198.56;;;35.74;46.90
36798;BME280;22748;8.426;99.512;2023-04-15T08:47:03;100191.22;;;35.75;46.65
36798;BME280;22748;8.426;99.512;2023-04-15T08:49:39;100189.88;;;35.72;46.55
36798;BME280;22748;8.426;99.512;2023-04-15T08:52:11;100186.06;;;35.73;46.74
36798;BME280;22748;8.426;99.512;2023-04-15T08:54:42;100186.63;;;35.75;46.72
36798;BME280;22748;8.426;99.512;2023-04-15T08:57:13;100176.84;;;35.74;47.12
36798;BME280;22748;8.426;99.512;2023-04-15T08:59:45;100177.94;;;35.78;47.01
36798;BME280;22748;8.426;99.512;2023-04-15T09:02:21;100176.28;;;35.77;47.07
36798;BME280;22748;8.426;99.512;2023-04-15T09:04:53;100174.13;;;35.79;47.52
36798;BME280;22748;8.426;99.512;2023-04-15T09:07:27;100177.94;;;35.83;46.73
36798;BME280;22748;8.426;99.512;2023-04-15T09:09:59;100179.84;;;35.83;47.00
36798;BME280;22748;8.426;99.512;2023-04-15T09:12:32;100183.94;;;35.86;46.24
36798;BME280;22748;8.426;99.512;2023-04-15T09:15:04;100183.38;;;35.89;46.33
36798;BME280;22748;8.426;99.512;2023-04-15T09:17:36;100173.63;;;35.93;46.05
36798;BME280;22748;8.426;99.512;2023-04-15T09:20:13;100169.03;;;35.93;46.07
36798;BME280;22748;8.426;99.512;2023-04-15T09:22:48;100168.47;;;35.91;46.24
36798;BME280;22748;8.426;99.512;2023-04-15T09:25:29;100154.88;;;35.91;46.11
36798;BME280;22748;8.426;99.512;2023-04-15T09:28:01;100170.91;;;35.93;46.27
36798;BME280;22748;8.426;99.512;2023-04-15T09:30:32;100173.91;;;35.96;46.35
36798;BME280;22748;8.426;99.512;2023-04-15T09:33:04;100168.75;;;36.00;46.28
36798;BME280;22748;8.426;99.512;2023-04-15T09:35:38;100170.38;;;36.01;46.19
36798;BME280;22748;8.426;99.512;2023-04-15T09:38:11;100164.41;;;35.99;46.27
36798;BME280;22748;8.426;99.512;2023-04-15T09:40:42;100172.00;;;35.97;46.31
36798;BME280;22748;8.426;99.512;2023-04-15T09:43:13;100176.88;;;35.95;46.54
36798;BME280;22748;8.426;99.512;2023-04-15T09:45:47;100179.59;;;35.95;46.40
36798;BME280;22748;8.426;99.512;2023-04-15T09:48:20;100179.59;;;35.95;46.37
36798;BME280;22748;8.426;99.512;2023-04-15T09:50:51;100191.03;;;35.97;46.37
36798;BME280;22748;8.426;99.512;2023-04-15T09:53:27;100189.97;;;35.98;46.46
36798;BME280;22748;8.426;99.512;2023-04-15T09:56:00;100191.31;;;36.00;46.27
36798;BME280;22748;8.426;99.512;2023-04-15T09:58:32;100203.00;;;36.01;46.23
36798;BME280;22748;8.426;99.512;2023-04-15T10:01:04;100203.81;;;36.01;46.18
36798;BME280;22748;8.426;99.512;2023-04-15T10:03:40;100195.94;;;36.00;46.20
36798;BME280;22748;8.426;99.512;2023-04-15T10:06:11;100193.47;;;35.98;46.39
36798;BME280;22748;8.426;99.512;2023-04-15T10:08:43;100191.84;;;35.97;46.66
36798;BME280;22748;8.426;99.512;2023-04-15T10:11:14;100183.41;;;35.99;46.84
36798;BME280;22748;8.426;99.512;2023-04-15T10:13:44;100180.72;;;35.99;46.40
36798;BME280;22748;8.426;99.512;2023-04-15T10:16:18;100193.22;;;36.00;46.38
36798;BME280;22748;8.426;99.512;2023-04-15T10:18:55;100202.16;;;35.95;46.48
36798;BME280;22748;8.426;99.512;2023-04-15T10:21:27;100212.75;;;35.97;46.24
36798;BME280;22748;8.426;99.512;2023-04-15T10:24:02;100219.00;;;35.92;46.18
36798;BME280;22748;8.426;99.512;2023-04-15T10:26:34;100215.75;;;35.90;46.22
36798;BME280;22748;8.426;99.512;2023-04-15T10:29:08;100208.94;;;35.88;46.36
36798;BME280;22748;8.426;99.512;2023-04-15T10:31:38;100210.56;;;35.89;46.50
36798;BME280;22748;8.426;99.512;2023-04-15T10:34:14;100216.00;;;35.89;46.55
36798;BME280;22748;8.426;99.512;2023-04-15T10:36:45;100214.91;;;35.84;46.06
36798;BME280;22748;8.426;99.512;2023-04-15T10:39:50;100243.41;;;35.82;45.74
36798;BME280;22748;8.426;99.512;2023-04-15T10:42:22;100253.97;;;35.73;45.68
36798;BME280;22748;8.426;99.512;2023-04-15T10:44:56;100250.72;;;35.71;45.76
36798;BME280;22748;8.426;99.512;2023-04-15T10:47:26;100235.81;;;35.74;46.22
36798;BME280;22748;8.426;99.512;2023-04-15T10:49:58;100234.97;;;35.73;45.86
36798;BME280;22748;8.426;99.512;2023-04-15T10:52:30;100236.34;;;35.76;46.07
36798;BME280;22748;8.426;99.512;2023-04-15T10:55:11;100240.94;;;35.75;46.30
36798;BME280;22748;8.426;99.512;2023-04-15T10:57:44;100247.22;;;35.76;45.91
36798;BME280;22748;8.426;99.512;2023-04-15T11:00:16;100240.41;;;35.73;46.06
36798;BME280;22748;8.426;99.512;2023-04-15T11:02:52;100242.56;;;35.71;45.80
36798;BME280;22748;8.426;99.512;2023-04-15T11:06:00;100250.16;;;35.69;46.21
36798;BME280;22748;8.426;99.512;2023-04-15T11:09:03;100250.16;;;35.69;46.24
36798;BME280;22748;8.426;99.512;2023-04-15T11:12:07;100259.41;;;35.68;46.09
36798;BME280;22748;8.426;99.512;2023-04-15T11:14:40;100266.75;;;35.68;45.89
36798;BME280;22748;8.426;99.512;2023-04-15T11:17:12;100286.25;;;35.64;46.14
36798;BME280;22748;8.426;99.512;2023-04-15T11:19:43;100275.41;;;35.64;46.01
36798;BME280;22748;8.426;99.512;2023-04-15T11:22:14;100283.84;;;35.63;46.01
36798;BME280;22748;8.426;99.512;2023-04-15T11:24:48;100286.78;;;35.61;46.10
36798;BME280;22748;8.426;99.512;2023-04-15T11:27:24;100293.56;;;35.59;45.91
36798;BME280;22748;8.426;99.512;2023-04-15T11:29:55;100305.75;;;35.56;45.93
36798;BME280;22748;8.426;99.512;2023-04-15T11:32:25;100308.72;;;35.55;46.13
36798;BME280;22748;8.426;99.512;2023-04-15T11:34:56;100313.63;;;35.58;45.81
36798;BME280;22748;8.426;99.512;2023-04-15T11:37:31;100313.59;;;35.53;45.95
36798;BME280;22748;8.426;99.512;2023-04-15T11:40:03;100325.00;;;35.50;46.02
36798;BME280;22748;8.426;99.512;2023-04-15T11:42:36;100326.06;;;35.49;46.18
36798;BME280;22748;8.426;99.512;2023-04-15T11:45:11;100335.31;;;35.48;45.96
36798;BME280;22748;8.426;99.512;2023-04-15T11:47:45;100338.59;;;35.50;46.05
36798;BME280;22748;8.426;99.512;2023-04-15T11:50:17;100332.88;;;35.51;46.05
36798;BME280;22748;8.426;99.512;2023-04-15T11:53:04;100333.97;;;35.50;46.10
36798;BME280;22748;8.426;99.512;2023-04-15T11:55:42;100332.88;;;35.51;45.92
36798;BME280;22748;8.426;99.512;2023-04-15T11:58:17;100345.91;;;35.49;46.09
36798;BME280;22748;8.426;99.512;2023-04-15T12:00:49;100345.63;;;35.46;46.21
36798;BME280;22748;8.426;99.512;2023-04-15T12:03:23;100357.53;;;35.44;46.23
36798;BME280;22748;8.426;99.512;2023-04-15T12:06:12;100358.63;;;35.43;46.30
36798;BME280;22748;8.426;99.512;2023-04-15T12:09:02;100359.69;;;35.42;46.71
36798;BME280;22748;8.426;99.512;2023-04-15T12:11:41;100365.94;;;35.43;46.47
36798;BME280;22748;8.426;99.512;2023-04-15T12:14:20;100371.38;;;35.43;46.90
36798;BME280;22748;8.426;99.512;2023-04-15T12:16:52;100381.41;;;35.42;47.10
36798;BME280;22748;8.426;99.512;2023-04-15T12:19:25;100379.78;;;35.41;47.61
36798;BME280;22748;8.426;99.512;2023-04-15T12:21:58;100383.00;;;35.38;47.76
36798;BME280;22748;8.426;99.512;2023-04-15T12:24:30;100388.44;;;35.38;47.91
36798;BME280;22748;8.426;99.512;2023-04-15T12:27:03;100402.03;;;35.38;47.80
36798;BME280;22748;8.426;99.512;2023-04-15T12:29:36;100399.88;;;35.40;48.26
36798;BME280;22748;8.426;99.512;2023-04-15T12:32:08;100405.31;;;35.40;48.09
36798;BME280;22748;8.426;99.512;2023-04-15T12:34:40;100402.59;;;35.40;48.34
36798;BME280;22748;8.426;99.512;2023-04-15T12:37:12;100405.31;;;35.40;48.44
36798;BME280;22748;8.426;99.512;2023-04-15T12:39:47;100405.81;;;35.37;48.01
36798;BME280;22748;8.426;99.512;2023-04-15T12:42:18;100405.81;;;35.37;48.34
36798;BME280;22748;8.426;99.512;2023-04-15T12:44:50;100414.22;;;35.36;48.25
36798;BME280;22748;8.426;99.512;2023-04-15T12:47:21;100409.56;;;35.31;48.05
36798;BME280;22748;8.426;99.512;2023-04-15T12:49:51;100423.13;;;35.26;48.20
36798;BME280;22748;8.426;99.512;2023-04-15T12:52:21;100423.59;;;35.23;47.99
36798;BME280;22748;8.426;99.512;2023-04-15T12:54:51;100439.91;;;35.23;48.31
36798;BME280;22748;8.426;99.512;2023-04-15T12:57:32;100445.28;;;35.18;48.38
36798;BME280;22748;8.426;99.512;2023-04-15T13:00:06;100450.69;;;35.13;48.38
36798;BME280;22748;8.426;99.512;2023-04-15T13:02:37;100456.66;;;35.15;48.46
36798;BME280;22748;8.426;99.512;2023-04-15T13:05:07;100461.00;;;35.16;48.36
36798;BME280;22748;8.426;99.512;2023-04-15T13:07:39;100460.75;;;35.17;48.54
36798;BME280;22748;8.426;99.512;2023-04-15T13:10:10;100473.78;;;35.15;48.70
36798;BME280;22748;8.426;99.512;2023-04-15T13:12:41;100485.44;;;35.16;48.59
36798;BME280;22748;8.426;99.512;2023-04-15T13:15:16;100490.31;;;35.14;48.74
36798;BME280;22748;8.426;99.512;2023-04-15T13:17:48;100501.72;;;35.16;48.99
36798;BME280;22748;8.426;99.512;2023-04-15T13:20:20;100513.09;;;35.13;49.16
36798;BME280;22748;8.426;99.512;2023-04-15T13:22:52;100504.09;;;35.12;49.27